sensor_id;sensor_type;location;lat;lon;timestamp;P1;durP1;ratioP1;P2;durP2;ratioP2
817;SDS011;391;51.052;6.954;2023-09-18T00:01:57;7.87;;;7.20;;
817;SDS011;391;51.052;6.954;2023-09-18T00:04:01;8.07;;;6.60;;
817;SDS011;391;51.052;6.954;2023-09-18T00:06:06;11.60;;;7.00;;
817;SDS011;391;51.052;6.954;2023-09-18T00:08:11;13.40;;;6.40;;
817;SDS011;391;51.052;6.954;2023-09-18T00:10:13;9.00;;;7.47;;
817;SDS011;391;51.052;6.954;2023-09-18T00:12:16;8.27;;;6.47;;
817;SDS011;391;51.052;6.954;2023-09-18T00:14:20;7.40;;;6.70;;
817;SDS011;391;51.052;6.954;2023-09-18T00:16:23;6.67;;;6.17;;
817;SDS011;391;51.052;6.954;2023-09-18T00:18:29;7.93;;;6.53;;
817;SDS011;391;51.052;6.954;2023-09-18T00:20:32;6.70;;;6.00;;
817;SDS011;391;51.052;6.954;2023-09-18T00:22:37;9.40;;;6.60;;
817;SDS011;391;51.052;6.954;2023-09-18T00:24:40;7.97;;;7.10;;
817;SDS011;391;51.052;6.954;2023-09-18T00:26:44;7.37;;;6.60;;
817;SDS011;391;51.052;6.954;2023-09-18T00:28:48;10.20;;;6.70;;
817;SDS011;391;51.052;6.954;2023-09-18T00:30:52;20.37;;;18.60;;
817;SDS011;391;51.052;6.954;2023-09-18T00:32:55;9.70;;;7.67;;
817;SDS011;391;51.052;6.954;2023-09-18T00:34:59;7.90;;;7.10;;
817;SDS011;391;51.052;6.954;2023-09-18T00:37:02;8.80;;;7.50;;
817;SDS011;391;51.052;6.954;2023-09-18T00:39:07;9.00;;;7.90;;
817;SDS011;391;51.052;6.954;2023-09-18T00:41:10;10.17;;;7.03;;
817;SDS011;391;51.052;6.954;2023-09-18T00:43:13;7.73;;;6.97;;
817;SDS011;391;51.052;6.954;2023-09-18T00:45:16;10.90;;;7.07;;
817;SDS011;391;51.052;6.954;2023-09-18T00:47:20;11.93;;;7.23;;
817;SDS011;391;51.052;6.954;2023-09-18T00:49:24;9.27;;;6.80;;
817;SDS011;391;51.052;6.954;2023-09-18T00:51:27;8.00;;;7.30;;
817;SDS011;391;51.052;6.954;2023-09-18T00:53:32;7.90;;;6.70;;
817;SDS011;391;51.052;6.954;2023-09-18T00:55:37;8.03;;;7.27;;
817;SDS011;391;51.052;6.954;2023-09-18T00:57:45;9.43;;;6.50;;
817;SDS011;391;51.052;6.954;2023-09-18T00:59:50;6.97;;;6.10;;
817;SDS011;391;51.052;6.954;2023-09-18T01:01:53;7.13;;;6.43;;
817;SDS011;391;51.052;6.954;2023-09-18T01:03:58;7.53;;;6.40;;
817;SDS011;391;51.052;6.954;2023-09-18T01:06:03;7.20;;;6.47;;
817;SDS011;391;51.052;6.954;2023-09-18T01:08:06;9.30;;;7.47;;
817;SDS011;391;51.052;6.954;2023-09-18T01:10:10;9.67;;;6.47;;
817;SDS011;391;51.052;6.954;2023-09-18T01:12:19;9.27;;;7.27;;
817;SDS011;391;51.052;6.954;2023-09-18T01:14:28;8.70;;;6.83;;
817;SDS011;391;51.052;6.954;2023-09-18T01:16:37;8.70;;;6.27;;
817;SDS011;391;51.052;6.954;2023-09-18T01:18:49;9.00;;;7.50;;
817;SDS011;391;51.052;6.954;2023-09-18T01:20:53;9.33;;;6.60;;
817;SDS011;391;51.052;6.954;2023-09-18T01:22:58;7.50;;;6.90;;
817;SDS011;391;51.052;6.954;2023-09-18T01:25:02;8.93;;;7.23;;
817;SDS011;391;51.052;6.954;2023-09-18T01:27:08;7.90;;;7.13;;
817;SDS011;391;51.052;6.954;2023-09-18T01:29:12;7.40;;;6.80;;
817;SDS011;391;51.052;6.954;2023-09-18T01:31:16;10.33;;;7.33;;
817;SDS011;391;51.052;6.954;2023-09-18T01:33:20;6.40;;;5.80;;
817;SDS011;391;51.052;6.954;2023-09-18T01:35:24;7.80;;;6.60;;
817;SDS011;391;51.052;6.954;2023-09-18T01:37:31;7.17;;;6.53;;
817;SDS011;391;51.052;6.954;2023-09-18T01:39:38;6.07;;;5.47;;
817;SDS011;391;51.052;6.954;2023-09-18T01:41:42;10.83;;;6.67;;
817;SDS011;391;51.052;6.954;2023-09-18T01:43:46;5.57;;;5.07;;
817;SDS011;391;51.052;6.954;2023-09-18T01:45:50;6.80;;;6.20;;
817;SDS011;391;51.052;6.954;2023-09-18T01:47:54;8.37;;;5.70;;
817;SDS011;391;51.052;6.954;2023-09-18T01:49:58;8.60;;;6.87;;
817;SDS011;391;51.052;6.954;2023-09-18T01:52:08;8.43;;;6.30;;
817;SDS011;391;51.052;6.954;2023-09-18T01:54:16;7.27;;;6.60;;
817;SDS011;391;51.052;6.954;2023-09-18T01:56:21;8.30;;;6.67;;
817;SDS011;391;51.052;6.954;2023-09-18T01:58:25;8.30;;;6.37;;
817;SDS011;391;51.052;6.954;2023-09-18T02:00:29;6.37;;;5.77;;
817;SDS011;391;51.052;6.954;2023-09-18T02:02:34;10.30;;;7.80;;
817;SDS011;391;51.052;6.954;2023-09-18T02:04:58;9.23;;;7.00;;
817;SDS011;391;51.052;6.954;2023-09-18T02:07:10;16.17;;;14.50;;
817;SDS011;391;51.052;6.954;2023-09-18T02:09:16;6.50;;;5.83;;
817;SDS011;391;51.052;6.954;2023-09-18T02:11:19;8.33;;;6.00;;
817;SDS011;391;51.052;6.954;2023-09-18T02:13:24;10.23;;;6.50;;
817;SDS011;391;51.052;6.954;2023-09-18T02:15:27;6.23;;;5.37;;
817;SDS011;391;51.052;6.954;2023-09-18T02:17:33;6.80;;;6.10;;
817;SDS011;391;51.052;6.954;2023-09-18T02:19:37;5.63;;;5.10;;
817;SDS011;391;51.052;6.954;2023-09-18T02:21:40;14.47;;;5.40;;
817;SDS011;391;51.052;6.954;2023-09-18T02:23:44;6.90;;;5.80;;
817;SDS011;391;51.052;6.954;2023-09-18T02:25:54;7.80;;;5.70;;
817;SDS011;391;51.052;6.954;2023-09-18T02:27:58;6.53;;;5.93;;
817;SDS011;391;51.052;6.954;2023-09-18T02:30:04;6.63;;;6.03;;
817;SDS011;391;51.052;6.954;2023-09-18T02:32:08;7.70;;;5.20;;
817;SDS011;391;51.052;6.954;2023-09-18T02:34:12;5.93;;;5.40;;
817;SDS011;391;51.052;6.954;2023-09-18T02:36:16;10.27;;;5.77;;
817;SDS011;391;51.052;6.954;2023-09-18T02:38:18;6.47;;;5.67;;
817;SDS011;391;51.052;6.954;2023-09-18T02:40:22;6.43;;;5.50;;
817;SDS011;391;51.052;6.954;2023-09-18T02:42:25;7.30;;;5.80;;
817;SDS011;391;51.052;6.954;2023-09-18T02:44:29;6.57;;;5.47;;
817;SDS011;391;51.052;6.954;2023-09-18T02:46:34;5.50;;;5.00;;
817;SDS011;391;51.052;6.954;2023-09-18T02:48:39;8.00;;;5.33;;
817;SDS011;391;51.052;6.954;2023-09-18T02:50:43;7.57;;;5.60;;
817;SDS011;391;51.052;6.954;2023-09-18T02:52:47;6.07;;;5.30;;
817;SDS011;391;51.052;6.954;2023-09-18T02:54:51;6.70;;;6.10;;
817;SDS011;391;51.052;6.954;2023-09-18T02:56:55;10.60;;;7.30;;
817;SDS011;391;51.052;6.954;2023-09-18T02:58:59;7.10;;;6.47;;
817;SDS011;391;51.052;6.954;2023-09-18T03:01:03;8.80;;;5.50;;
817;SDS011;391;51.052;6.954;2023-09-18T03:03:08;8.20;;;6.57;;
817;SDS011;391;51.052;6.954;2023-09-18T03:05:12;7.53;;;6.20;;
817;SDS011;391;51.052;6.954;2023-09-18T03:07:16;7.23;;;5.73;;
817;SDS011;391;51.052;6.954;2023-09-18T03:09:20;8.20;;;6.30;;
817;SDS011;391;51.052;6.954;2023-09-18T03:11:23;8.07;;;6.10;;
817;SDS011;391;51.052;6.954;2023-09-18T03:13:30;7.70;;;6.00;;
817;SDS011;391;51.052;6.954;2023-09-18T03:15:33;8.50;;;6.20;;
817;SDS011;391;51.052;6.954;2023-09-18T03:17:38;9.73;;;7.63;;
817;SDS011;391;51.052;6.954;2023-09-18T03:19:44;7.13;;;5.90;;
817;SDS011;391;51.052;6.954;2023-09-18T03:21:50;6.23;;;5.63;;
817;SDS011;391;51.052;6.954;2023-09-18T03:23:54;6.50;;;6.00;;
817;SDS011;391;51.052;6.954;2023-09-18T03:25:57;6.47;;;5.87;;
817;SDS011;391;51.052;6.954;2023-09-18T03:28:02;17.00;;;10.30;;
817;SDS011;391;51.052;6.954;2023-09-18T03:30:08;11.17;;;8.87;;
817;SDS011;391;51.052;6.954;2023-09-18T03:32:14;13.43;;;10.53;;
817;SDS011;391;51.052;6.954;2023-09-18T03:34:18;11.10;;;7.80;;
817;SDS011;391;51.052;6.954;2023-09-18T03:36:22;10.30;;;6.00;;
817;SDS011;391;51.052;6.954;2023-09-18T03:38:26;7.23;;;6.40;;
817;SDS011;391;51.052;6.954;2023-09-18T03:40:32;6.40;;;5.57;;
817;SDS011;391;51.052;6.954;2023-09-18T03:42:36;8.10;;;5.57;;
817;SDS011;391;51.052;6.954;2023-09-18T03:44:40;9.20;;;6.07;;
817;SDS011;391;51.052;6.954;2023-09-18T03:46:43;6.60;;;5.70;;
817;SDS011;391;51.052;6.954;2023-09-18T03:48:47;12.30;;;11.23;;
817;SDS011;391;51.052;6.954;2023-09-18T03:50:51;12.57;;;11.37;;
817;SDS011;391;51.052;6.954;2023-09-18T03:52:57;12.57;;;10.10;;
817;SDS011;391;51.052;6.954;2023-09-18T03:55:00;11.07;;;6.30;;
817;SDS011;391;51.052;6.954;2023-09-18T03:57:05;6.93;;;6.23;;
817;SDS011;391;51.052;6.954;2023-09-18T03:59:08;6.57;;;5.90;;
817;SDS011;391;51.052;6.954;2023-09-18T04:01:12;10.53;;;6.50;;
817;SDS011;391;51.052;6.954;2023-09-18T04:03:15;6.20;;;5.60;;
817;SDS011;391;51.052;6.954;2023-09-18T04:05:19;6.87;;;5.90;;
817;SDS011;391;51.052;6.954;2023-09-18T04:07:23;9.10;;;5.87;;
817;SDS011;391;51.052;6.954;2023-09-18T04:09:27;10.33;;;5.43;;
817;SDS011;391;51.052;6.954;2023-09-18T04:11:31;7.57;;;5.50;;
817;SDS011;391;51.052;6.954;2023-09-18T04:13:35;11.20;;;5.83;;
817;SDS011;391;51.052;6.954;2023-09-18T04:15:39;7.97;;;6.63;;
817;SDS011;391;51.052;6.954;2023-09-18T04:17:43;8.00;;;5.60;;
817;SDS011;391;51.052;6.954;2023-09-18T04:19:47;11.60;;;6.73;;
817;SDS011;391;51.052;6.954;2023-09-18T04:21:51;8.07;;;6.03;;
817;SDS011;391;51.052;6.954;2023-09-18T04:23:54;10.07;;;8.00;;
817;SDS011;391;51.052;6.954;2023-09-18T04:26:01;14.27;;;8.37;;
817;SDS011;391;51.052;6.954;2023-09-18T04:28:05;7.30;;;5.77;;
817;SDS011;391;51.052;6.954;2023-09-18T04:30:09;9.90;;;6.20;;
817;SDS011;391;51.052;6.954;2023-09-18T04:32:12;7.43;;;5.10;;
817;SDS011;391;51.052;6.954;2023-09-18T04:34:16;8.07;;;5.60;;
817;SDS011;391;51.052;6.954;2023-09-18T04:36:21;8.00;;;5.77;;
817;SDS011;391;51.052;6.954;2023-09-18T04:38:24;11.03;;;6.07;;
817;SDS011;391;51.052;6.954;2023-09-18T04:40:29;10.30;;;6.87;;
817;SDS011;391;51.052;6.954;2023-09-18T04:42:35;11.10;;;8.00;;
817;SDS011;391;51.052;6.954;2023-09-18T04:44:41;8.57;;;7.23;;
817;SDS011;391;51.052;6.954;2023-09-18T04:46:46;11.10;;;8.10;;
817;SDS011;391;51.052;6.954;2023-09-18T04:48:50;7.20;;;6.60;;
817;SDS011;391;51.052;6.954;2023-09-18T04:50:54;11.97;;;7.53;;
817;SDS011;391;51.052;6.954;2023-09-18T04:52:58;6.47;;;5.87;;
817;SDS011;391;51.052;6.954;2023-09-18T04:55:01;7.67;;;6.87;;
817;SDS011;391;51.052;6.954;2023-09-18T04:57:07;9.17;;;6.13;;
817;SDS011;391;51.052;6.954;2023-09-18T04:59:15;7.27;;;6.33;;
817;SDS011;391;51.052;6.954;2023-09-18T05:01:18;8.40;;;6.30;;
817;SDS011;391;51.052;6.954;2023-09-18T05:03:23;14.37;;;10.83;;
817;SDS011;391;51.052;6.954;2023-09-18T05:05:29;11.97;;;7.13;;
817;SDS011;391;51.052;6.954;2023-09-18T05:07:32;8.90;;;6.43;;
817;SDS011;391;51.052;6.954;2023-09-18T05:09:36;9.00;;;7.30;;
817;SDS011;391;51.052;6.954;2023-09-18T05:11:41;8.30;;;5.87;;
817;SDS011;391;51.052;6.954;2023-09-18T05:13:46;9.10;;;6.50;;
817;SDS011;391;51.052;6.954;2023-09-18T05:15:51;7.50;;;6.57;;
817;SDS011;391;51.052;6.954;2023-09-18T05:17:55;7.80;;;5.90;;
817;SDS011;391;51.052;6.954;2023-09-18T05:20:00;8.90;;;6.43;;
817;SDS011;391;51.052;6.954;2023-09-18T05:22:07;7.03;;;5.23;;
817;SDS011;391;51.052;6.954;2023-09-18T05:24:12;11.83;;;6.77;;
817;SDS011;391;51.052;6.954;2023-09-18T05:26:14;8.47;;;5.30;;
817;SDS011;391;51.052;6.954;2023-09-18T05:28:18;9.37;;;6.13;;
817;SDS011;391;51.052;6.954;2023-09-18T05:30:23;11.97;;;5.80;;
817;SDS011;391;51.052;6.954;2023-09-18T05:32:31;10.67;;;5.87;;
817;SDS011;391;51.052;6.954;2023-09-18T05:34:34;9.93;;;6.47;;
817;SDS011;391;51.052;6.954;2023-09-18T05:36:38;6.27;;;4.90;;
817;SDS011;391;51.052;6.954;2023-09-18T05:38:42;12.33;;;6.77;;
817;SDS011;391;51.052;6.954;2023-09-18T05:40:47;5.27;;;4.70;;
817;SDS011;391;51.052;6.954;2023-09-18T05:42:50;13.07;;;6.43;;
817;SDS011;391;51.052;6.954;2023-09-18T05:44:54;9.03;;;5.10;;
817;SDS011;391;51.052;6.954;2023-09-18T05:46:58;8.63;;;5.77;;
817;SDS011;391;51.052;6.954;2023-09-18T05:49:03;7.10;;;4.43;;
817;SDS011;391;51.052;6.954;2023-09-18T05:51:06;10.33;;;5.10;;
817;SDS011;391;51.052;6.954;2023-09-18T05:53:09;6.00;;;4.80;;
817;SDS011;391;51.052;6.954;2023-09-18T05:55:13;9.53;;;5.70;;
817;SDS011;391;51.052;6.954;2023-09-18T05:57:18;7.37;;;5.10;;
817;SDS011;391;51.052;6.954;2023-09-18T05:59:24;7.23;;;5.07;;
817;SDS011;391;51.052;6.954;2023-09-18T06:01:28;8.97;;;5.67;;
817;SDS011;391;51.052;6.954;2023-09-18T06:03:31;7.50;;;4.90;;
817;SDS011;391;51.052;6.954;2023-09-18T06:05:39;6.40;;;5.73;;
817;SDS011;391;51.052;6.954;2023-09-18T06:07:43;9.27;;;5.10;;
817;SDS011;391;51.052;6.954;2023-09-18T06:09:47;7.00;;;4.93;;
817;SDS011;391;51.052;6.954;2023-09-18T06:11:50;6.07;;;3.87;;
817;SDS011;391;51.052;6.954;2023-09-18T06:13:53;6.93;;;4.77;;
817;SDS011;391;51.052;6.954;2023-09-18T06:15:57;7.60;;;5.43;;
817;SDS011;391;51.052;6.954;2023-09-18T06:18:00;10.50;;;5.00;;
817;SDS011;391;51.052;6.954;2023-09-18T06:20:06;5.80;;;4.20;;
817;SDS011;391;51.052;6.954;2023-09-18T06:22:14;6.27;;;4.53;;
817;SDS011;391;51.052;6.954;2023-09-18T06:24:18;6.60;;;4.20;;
817;SDS011;391;51.052;6.954;2023-09-18T06:26:21;8.00;;;4.40;;
817;SDS011;391;51.052;6.954;2023-09-18T06:28:25;8.40;;;4.17;;
817;SDS011;391;51.052;6.954;2023-09-18T06:30:29;6.23;;;3.30;;
817;SDS011;391;51.052;6.954;2023-09-18T06:32:35;6.50;;;3.70;;
817;SDS011;391;51.052;6.954;2023-09-18T06:34:40;4.47;;;3.20;;
817;SDS011;391;51.052;6.954;2023-09-18T06:36:47;4.90;;;3.70;;
817;SDS011;391;51.052;6.954;2023-09-18T06:38:52;5.80;;;3.57;;
817;SDS011;391;51.052;6.954;2023-09-18T06:40:56;7.13;;;3.90;;
817;SDS011;391;51.052;6.954;2023-09-18T06:43:00;6.73;;;3.20;;
817;SDS011;391;51.052;6.954;2023-09-18T06:45:04;6.97;;;3.70;;
817;SDS011;391;51.052;6.954;2023-09-18T06:47:09;6.30;;;4.03;;
817;SDS011;391;51.052;6.954;2023-09-18T06:49:12;6.27;;;3.77;;
817;SDS011;391;51.052;6.954;2023-09-18T06:51:16;10.40;;;5.17;;
817;SDS011;391;51.052;6.954;2023-09-18T06:53:31;4.10;;;3.17;;
817;SDS011;391;51.052;6.954;2023-09-18T06:55:36;4.80;;;3.33;;
817;SDS011;391;51.052;6.954;2023-09-18T06:57:40;6.23;;;3.20;;
817;SDS011;391;51.052;6.954;2023-09-18T06:59:43;12.03;;;3.57;;
817;SDS011;391;51.052;6.954;2023-09-18T07:01:47;4.33;;;3.63;;
817;SDS011;391;51.052;6.954;2023-09-18T07:03:51;5.00;;;3.00;;
817;SDS011;391;51.052;6.954;2023-09-18T07:05:55;6.80;;;2.90;;
817;SDS011;391;51.052;6.954;2023-09-18T07:07:59;4.17;;;3.70;;
817;SDS011;391;51.052;6.954;2023-09-18T07:10:03;3.40;;;2.57;;
817;SDS011;391;51.052;6.954;2023-09-18T07:12:09;7.07;;;2.80;;
817;SDS011;391;51.052;6.954;2023-09-18T07:14:12;5.23;;;2.80;;
817;SDS011;391;51.052;6.954;2023-09-18T07:16:16;4.53;;;3.13;;
817;SDS011;391;51.052;6.954;2023-09-18T07:18:20;5.90;;;3.60;;
817;SDS011;391;51.052;6.954;2023-09-18T07:20:23;4.50;;;3.80;;
817;SDS011;391;51.052;6.954;2023-09-18T07:22:26;5.30;;;2.90;;
817;SDS011;391;51.052;6.954;2023-09-18T07:24:32;4.27;;;3.30;;
817;SDS011;391;51.052;6.954;2023-09-18T07:26:35;5.30;;;3.60;;
817;SDS011;391;51.052;6.954;2023-09-18T07:28:40;5.23;;;2.53;;
817;SDS011;391;51.052;6.954;2023-09-18T07:30:46;4.87;;;3.33;;
817;SDS011;391;51.052;6.954;2023-09-18T07:32:50;4.60;;;3.33;;
817;SDS011;391;51.052;6.954;2023-09-18T07:34:54;5.30;;;3.10;;
817;SDS011;391;51.052;6.954;2023-09-18T07:36:57;3.87;;;2.70;;
817;SDS011;391;51.052;6.954;2023-09-18T07:39:00;3.87;;;2.60;;
817;SDS011;391;51.052;6.954;2023-09-18T07:41:04;6.67;;;2.83;;
817;SDS011;391;51.052;6.954;2023-09-18T07:43:08;7.90;;;3.40;;
817;SDS011;391;51.052;6.954;2023-09-18T07:45:12;3.43;;;3.03;;
817;SDS011;391;51.052;6.954;2023-09-18T07:47:21;8.70;;;3.43;;
817;SDS011;391;51.052;6.954;2023-09-18T07:49:25;8.07;;;2.70;;
817;SDS011;391;51.052;6.954;2023-09-18T07:51:28;4.70;;;2.60;;
817;SDS011;391;51.052;6.954;2023-09-18T07:53:33;3.00;;;2.70;;
817;SDS011;391;51.052;6.954;2023-09-18T07:55:36;4.10;;;2.40;;
817;SDS011;391;51.052;6.954;2023-09-18T07:57:39;7.43;;;3.00;;
817;SDS011;391;51.052;6.954;2023-09-18T07:59:43;6.17;;;2.50;;
817;SDS011;391;51.052;6.954;2023-09-18T08:01:49;6.47;;;2.97;;
817;SDS011;391;51.052;6.954;2023-09-18T08:03:53;3.13;;;2.20;;
817;SDS011;391;51.052;6.954;2023-09-18T08:05:57;4.30;;;2.37;;
817;SDS011;391;51.052;6.954;2023-09-18T08:08:00;3.93;;;2.30;;
817;SDS011;391;51.052;6.954;2023-09-18T08:10:07;3.43;;;2.53;;
817;SDS011;391;51.052;6.954;2023-09-18T08:12:10;2.87;;;2.20;;
817;SDS011;391;51.052;6.954;2023-09-18T08:14:14;3.33;;;2.17;;
817;SDS011;391;51.052;6.954;2023-09-18T08:16:17;3.53;;;2.30;;
817;SDS011;391;51.052;6.954;2023-09-18T08:18:22;2.20;;;2.00;;
817;SDS011;391;51.052;6.954;2023-09-18T08:20:29;7.03;;;2.33;;
817;SDS011;391;51.052;6.954;2023-09-18T08:22:32;2.00;;;1.63;;
817;SDS011;391;51.052;6.954;2023-09-18T08:24:35;4.37;;;3.03;;
817;SDS011;391;51.052;6.954;2023-09-18T08:26:39;4.10;;;2.10;;
817;SDS011;391;51.052;6.954;2023-09-18T08:28:43;4.37;;;2.70;;
817;SDS011;391;51.052;6.954;2023-09-18T08:30:46;2.60;;;2.10;;
817;SDS011;391;51.052;6.954;2023-09-18T08:32:50;3.03;;;1.90;;
817;SDS011;391;51.052;6.954;2023-09-18T08:34:55;3.33;;;1.90;;
817;SDS011;391;51.052;6.954;2023-09-18T08:36:58;4.97;;;2.30;;
817;SDS011;391;51.052;6.954;2023-09-18T08:39:00;3.53;;;2.03;;
817;SDS011;391;51.052;6.954;2023-09-18T08:41:05;2.23;;;1.70;;
817;SDS011;391;51.052;6.954;2023-09-18T08:43:12;3.33;;;2.10;;
817;SDS011;391;51.052;6.954;2023-09-18T08:45:19;3.57;;;2.00;;
817;SDS011;391;51.052;6.954;2023-09-18T08:47:26;5.83;;;1.90;;
817;SDS011;391;51.052;6.954;2023-09-18T08:49:31;3.40;;;2.07;;
817;SDS011;391;51.052;6.954;2023-09-18T08:51:36;3.33;;;1.60;;
817;SDS011;391;51.052;6.954;2023-09-18T08:53:41;3.23;;;1.70;;
817;SDS011;391;51.052;6.954;2023-09-18T08:55:45;2.33;;;1.90;;
817;SDS011;391;51.052;6.954;2023-09-18T08:57:48;2.50;;;1.90;;
817;SDS011;391;51.052;6.954;2023-09-18T08:59:52;3.10;;;2.40;;
817;SDS011;391;51.052;6.954;2023-09-18T09:01:59;3.20;;;1.80;;
817;SDS011;391;51.052;6.954;2023-09-18T09:04:02;3.30;;;2.60;;
817;SDS011;391;51.052;6.954;2023-09-18T09:06:06;2.20;;;1.80;;
817;SDS011;391;51.052;6.954;2023-09-18T09:08:11;3.40;;;2.00;;
817;SDS011;391;51.052;6.954;2023-09-18T09:10:14;2.80;;;1.50;;
817;SDS011;391;51.052;6.954;2023-09-18T09:12:18;2.70;;;1.70;;
817;SDS011;391;51.052;6.954;2023-09-18T09:15:01;4.00;;;2.20;;
817;SDS011;391;51.052;6.954;2023-09-18T09:17:06;2.87;;;1.77;;
817;SDS011;391;51.052;6.954;2023-09-18T09:19:09;2.13;;;1.77;;
817;SDS011;391;51.052;6.954;2023-09-18T09:21:13;3.67;;;1.90;;
817;SDS011;391;51.052;6.954;2023-09-18T09:23:18;3.63;;;1.70;;
817;SDS011;391;51.052;6.954;2023-09-18T09:25:22;3.40;;;2.10;;
817;SDS011;391;51.052;6.954;2023-09-18T09:27:41;3.00;;;1.77;;
817;SDS011;391;51.052;6.954;2023-09-18T09:29:51;2.80;;;1.93;;
817;SDS011;391;51.052;6.954;2023-09-18T09:32:13;3.50;;;2.10;;
817;SDS011;391;51.052;6.954;2023-09-18T09:34:24;2.80;;;2.03;;
817;SDS011;391;51.052;6.954;2023-09-18T09:36:28;4.20;;;1.30;;
817;SDS011;391;51.052;6.954;2023-09-18T09:38:34;3.03;;;2.30;;
817;SDS011;391;51.052;6.954;2023-09-18T09:40:39;2.00;;;1.80;;
817;SDS011;391;51.052;6.954;2023-09-18T09:42:43;1.50;;;1.40;;
817;SDS011;391;51.052;6.954;2023-09-18T09:44:48;3.70;;;1.87;;
817;SDS011;391;51.052;6.954;2023-09-18T09:46:58;2.23;;;1.90;;
817;SDS011;391;51.052;6.954;2023-09-18T09:49:02;3.10;;;2.03;;
817;SDS011;391;51.052;6.954;2023-09-18T09:51:07;2.43;;;1.77;;
817;SDS011;391;51.052;6.954;2023-09-18T09:53:11;4.43;;;1.90;;
817;SDS011;391;51.052;6.954;2023-09-18T09:55:20;2.53;;;2.03;;
817;SDS011;391;51.052;6.954;2023-09-18T09:57:25;4.03;;;1.80;;
817;SDS011;391;51.052;6.954;2023-09-18T09:59:28;6.03;;;4.23;;
817;SDS011;391;51.052;6.954;2023-09-18T10:01:35;3.80;;;2.43;;
817;SDS011;391;51.052;6.954;2023-09-18T10:03:39;3.73;;;1.73;;
817;SDS011;391;51.052;6.954;2023-09-18T10:05:43;4.70;;;2.33;;
817;SDS011;391;51.052;6.954;2023-09-18T10:07:48;3.00;;;2.07;;
817;SDS011;391;51.052;6.954;2023-09-18T10:09:50;4.00;;;1.90;;
817;SDS011;391;51.052;6.954;2023-09-18T10:11:56;3.00;;;1.97;;
817;SDS011;391;51.052;6.954;2023-09-18T10:14:02;2.50;;;1.90;;
817;SDS011;391;51.052;6.954;2023-09-18T10:16:14;4.53;;;1.90;;
817;SDS011;391;51.052;6.954;2023-09-18T10:18:26;5.73;;;2.30;;
817;SDS011;391;51.052;6.954;2023-09-18T10:20:31;1.70;;;1.60;;
817;SDS011;391;51.052;6.954;2023-09-18T10:22:36;2.27;;;2.00;;
817;SDS011;391;51.052;6.954;2023-09-18T10:24:45;7.33;;;4.83;;
817;SDS011;391;51.052;6.954;2023-09-18T10:26:54;4.17;;;1.83;;
817;SDS011;391;51.052;6.954;2023-09-18T10:29:00;2.33;;;1.77;;
817;SDS011;391;51.052;6.954;2023-09-18T10:31:07;2.10;;;1.90;;
817;SDS011;391;51.052;6.954;2023-09-18T10:33:13;2.73;;;1.60;;
817;SDS011;391;51.052;6.954;2023-09-18T10:35:18;4.37;;;2.40;;
817;SDS011;391;51.052;6.954;2023-09-18T10:37:22;3.00;;;1.97;;
817;SDS011;391;51.052;6.954;2023-09-18T10:39:26;5.37;;;1.83;;
817;SDS011;391;51.052;6.954;2023-09-18T10:41:32;2.73;;;2.00;;
817;SDS011;391;51.052;6.954;2023-09-18T10:43:38;3.80;;;2.00;;
817;SDS011;391;51.052;6.954;2023-09-18T10:45:41;2.27;;;1.60;;
817;SDS011;391;51.052;6.954;2023-09-18T10:47:46;2.37;;;1.40;;
817;SDS011;391;51.052;6.954;2023-09-18T10:49:52;2.13;;;1.90;;
817;SDS011;391;51.052;6.954;2023-09-18T10:51:54;2.83;;;2.00;;
817;SDS011;391;51.052;6.954;2023-09-18T10:54:00;1.67;;;1.57;;
817;SDS011;391;51.052;6.954;2023-09-18T10:56:05;5.20;;;1.70;;
817;SDS011;391;51.052;6.954;2023-09-18T10:58:08;5.60;;;1.60;;
817;SDS011;391;51.052;6.954;2023-09-18T11:00:14;3.67;;;1.53;;
817;SDS011;391;51.052;6.954;2023-09-18T11:02:18;1.77;;;1.40;;
817;SDS011;391;51.052;6.954;2023-09-18T11:04:23;3.60;;;1.30;;
817;SDS011;391;51.052;6.954;2023-09-18T11:06:27;1.90;;;1.70;;
817;SDS011;391;51.052;6.954;2023-09-18T11:08:32;4.70;;;2.90;;
817;SDS011;391;51.052;6.954;2023-09-18T11:10:37;1.40;;;1.30;;
817;SDS011;391;51.052;6.954;2023-09-18T11:12:58;3.53;;;2.90;;
817;SDS011;391;51.052;6.954;2023-09-18T11:15:09;3.80;;;3.07;;
817;SDS011;391;51.052;6.954;2023-09-18T11:17:34;3.37;;;1.43;;
817;SDS011;391;51.052;6.954;2023-09-18T11:19:40;2.40;;;2.13;;
817;SDS011;391;51.052;6.954;2023-09-18T11:21:45;1.67;;;1.30;;
817;SDS011;391;51.052;6.954;2023-09-18T11:23:51;4.77;;;1.63;;
817;SDS011;391;51.052;6.954;2023-09-18T11:26:02;5.60;;;2.50;;
817;SDS011;391;51.052;6.954;2023-09-18T11:28:08;1.70;;;1.60;;
817;SDS011;391;51.052;6.954;2023-09-18T11:30:18;3.13;;;1.43;;
817;SDS011;391;51.052;6.954;2023-09-18T11:34:43;1.60;;;1.13;;
817;SDS011;391;51.052;6.954;2023-09-18T11:36:47;2.97;;;1.57;;
817;SDS011;391;51.052;6.954;2023-09-18T11:38:51;1.40;;;1.30;;
817;SDS011;391;51.052;6.954;2023-09-18T11:40:59;3.13;;;1.40;;
817;SDS011;391;51.052;6.954;2023-09-18T11:43:22;4.37;;;2.03;;
817;SDS011;391;51.052;6.954;2023-09-18T11:45:27;4.53;;;2.13;;
817;SDS011;391;51.052;6.954;2023-09-18T11:47:31;1.43;;;1.20;;
817;SDS011;391;51.052;6.954;2023-09-18T11:49:41;2.83;;;1.83;;
817;SDS011;391;51.052;6.954;2023-09-18T11:51:52;2.50;;;2.30;;
817;SDS011;391;51.052;6.954;2023-09-18T11:53:56;3.20;;;2.77;;
817;SDS011;391;51.052;6.954;2023-09-18T11:56:02;2.40;;;2.20;;
817;SDS011;391;51.052;6.954;2023-09-18T11:58:06;2.50;;;1.50;;
817;SDS011;391;51.052;6.954;2023-09-18T12:00:18;3.43;;;1.57;;
817;SDS011;391;51.052;6.954;2023-09-18T12:02:26;2.20;;;1.80;;
817;SDS011;391;51.052;6.954;2023-09-18T12:04:38;4.50;;;1.70;;
817;SDS011;391;51.052;6.954;2023-09-18T12:06:42;3.33;;;1.70;;
817;SDS011;391;51.052;6.954;2023-09-18T12:08:46;4.20;;;1.63;;
817;SDS011;391;51.052;6.954;2023-09-18T12:10:50;2.03;;;1.50;;
817;SDS011;391;51.052;6.954;2023-09-18T12:12:53;3.53;;;2.77;;
817;SDS011;391;51.052;6.954;2023-09-18T12:14:57;1.97;;;1.87;;
817;SDS011;391;51.052;6.954;2023-09-18T12:17:00;2.73;;;1.73;;
817;SDS011;391;51.052;6.954;2023-09-18T12:19:05;2.20;;;2.00;;
817;SDS011;391;51.052;6.954;2023-09-18T12:21:10;5.73;;;1.80;;
817;SDS011;391;51.052;6.954;2023-09-18T12:23:16;3.10;;;1.50;;
817;SDS011;391;51.052;6.954;2023-09-18T12:25:21;1.70;;;1.60;;
817;SDS011;391;51.052;6.954;2023-09-18T12:27:26;1.73;;;1.50;;
817;SDS011;391;51.052;6.954;2023-09-18T12:29:29;1.43;;;1.33;;
817;SDS011;391;51.052;6.954;2023-09-18T12:31:35;1.93;;;1.53;;
817;SDS011;391;51.052;6.954;2023-09-18T12:33:39;3.20;;;1.50;;
817;SDS011;391;51.052;6.954;2023-09-18T12:35:45;1.77;;;1.23;;
817;SDS011;391;51.052;6.954;2023-09-18T12:37:49;1.97;;;1.70;;
817;SDS011;391;51.052;6.954;2023-09-18T12:39:54;4.00;;;1.93;;
817;SDS011;391;51.052;6.954;2023-09-18T12:41:57;2.67;;;1.57;;
817;SDS011;391;51.052;6.954;2023-09-18T12:44:01;2.33;;;1.43;;
817;SDS011;391;51.052;6.954;2023-09-18T12:46:06;1.70;;;1.60;;
817;SDS011;391;51.052;6.954;2023-09-18T12:48:11;2.17;;;1.97;;
817;SDS011;391;51.052;6.954;2023-09-18T12:50:16;3.73;;;2.27;;
817;SDS011;391;51.052;6.954;2023-09-18T12:52:21;3.33;;;1.77;;
817;SDS011;391;51.052;6.954;2023-09-18T12:54:38;2.60;;;1.60;;
817;SDS011;391;51.052;6.954;2023-09-18T12:56:43;2.13;;;1.40;;
817;SDS011;391;51.052;6.954;2023-09-18T12:58:47;2.10;;;1.87;;
817;SDS011;391;51.052;6.954;2023-09-18T13:01:10;3.60;;;1.83;;
817;SDS011;391;51.052;6.954;2023-09-18T13:03:14;3.03;;;1.50;;
817;SDS011;391;51.052;6.954;2023-09-18T13:05:20;1.63;;;1.30;;
817;SDS011;391;51.052;6.954;2023-09-18T13:07:27;2.40;;;1.70;;
817;SDS011;391;51.052;6.954;2023-09-18T13:09:31;2.83;;;1.87;;
817;SDS011;391;51.052;6.954;2023-09-18T13:13:57;2.17;;;1.53;;
817;SDS011;391;51.052;6.954;2023-09-18T13:16:04;1.70;;;1.50;;
817;SDS011;391;51.052;6.954;2023-09-18T13:18:10;2.73;;;1.33;;
817;SDS011;391;51.052;6.954;2023-09-18T13:20:15;3.47;;;1.97;;
817;SDS011;391;51.052;6.954;2023-09-18T13:22:23;1.60;;;1.43;;
817;SDS011;391;51.052;6.954;2023-09-18T13:24:27;2.50;;;1.70;;
817;SDS011;391;51.052;6.954;2023-09-18T13:26:32;5.13;;;1.67;;